createdAt,value
2018-06-29T00:00:02.862Z,19.5
2018-06-29T00:05:03.278Z,19.5
2018-06-29T00:10:03.105Z,19.4
2018-06-29T00:15:05.080Z,19.3
2018-06-29T00:20:02.568Z,19.3
2018-06-29T00:25:28.295Z,19.1
2018-06-29T00:30:05.241Z,19
2018-06-29T00:35:05.629Z,18.9
2018-06-29T00:40:02.531Z,18.9
2018-06-29T00:45:05.581Z,18.8
2018-06-29T00:50:05.695Z,18.7
2018-06-29T00:55:12.855Z,18.6
2018-06-29T01:00:05.777Z,18.6
2018-06-29T01:05:05.158Z,18.6
2018-06-29T01:10:03.176Z,18.5
2018-06-29T01:15:05.205Z,18.5
2018-06-29T01:20:07.823Z,18.4
2018-06-29T01:25:08.176Z,18.4
2018-06-29T01:30:02.522Z,18.4
2018-06-29T01:35:02.972Z,18.4
2018-06-29T01:40:05.398Z,18.3
2018-06-29T01:45:08.233Z,18.2
2018-06-29T01:50:02.605Z,18.2
2018-06-29T01:55:18.268Z,18.1
2018-06-29T02:00:05.145Z,18
2018-06-29T02:05:05.476Z,17.9
2018-06-29T02:10:28.595Z,17.8
2018-06-29T02:15:10.482Z,17.8
2018-06-29T02:20:03.038Z,17.8
2018-06-29T02:25:03.277Z,17.8
2018-06-29T02:30:07.715Z,17.7
2018-06-29T02:35:03.045Z,17.7
2018-06-29T02:40:07.904Z,17.6
2018-06-29T02:45:05.767Z,17.6
2018-06-29T02:50:08.196Z,17.6
2018-06-29T02:55:04.948Z,17.5
2018-06-29T03:00:08.377Z,17.5
2018-06-29T03:05:05.225Z,17.5
2018-06-29T03:10:20.707Z,17.4
2018-06-29T03:15:04.996Z,17.4
2018-06-29T03:20:02.410Z,17.4
2018-06-29T03:25:05.432Z,17.4
2018-06-29T03:30:05.460Z,17.4
2018-06-29T03:35:07.453Z,17.3
2018-06-29T03:40:05.784Z,17.3
2018-06-29T03:45:05.302Z,17.3
2018-06-29T03:50:05.244Z,17.2
2018-06-29T03:55:05.568Z,17.2
2018-06-29T04:00:25.670Z,17.2
2018-06-29T04:05:05.648Z,17.2
2018-06-29T04:10:07.545Z,17.2
2018-06-29T04:15:02.824Z,17.2
2018-06-29T04:20:13.387Z,17.2
2018-06-29T04:25:07.747Z,17.3
2018-06-29T04:30:05.659Z,17.3
2018-06-29T04:35:02.503Z,17.3
2018-06-29T04:40:03.346Z,17.4
2018-06-29T04:45:07.802Z,17.5
2018-06-29T04:50:03.185Z,17.5
2018-06-29T04:55:05.178Z,17.6
2018-06-29T05:00:07.672Z,17.6
2018-06-29T05:05:02.916Z,17.6
2018-06-29T05:10:05.335Z,17.9
2018-06-29T05:15:03.231Z,17.8
2018-06-29T05:20:02.687Z,18
2018-06-29T05:25:23.353Z,18.2
2018-06-29T05:30:02.848Z,18.2
2018-06-29T05:35:08.243Z,18.5
2018-06-29T05:40:05.569Z,18.7
2018-06-29T05:45:09.966Z,18.8
2018-06-29T05:50:05.074Z,18.9
2018-06-29T05:55:08.040Z,19
2018-06-29T06:00:07.446Z,19.1
2018-06-29T06:05:02.829Z,19.1
2018-06-29T06:10:02.876Z,19.2
2018-06-29T06:15:03.308Z,19.3
2018-06-29T06:20:05.306Z,19.5
2018-06-29T06:25:05.681Z,19.7
2018-06-29T06:30:08.269Z,19.8
2018-06-29T06:35:02.658Z,19.8
2018-06-29T06:40:05.039Z,20
2018-06-29T06:45:07.969Z,20.2
2018-06-29T06:50:03.320Z,20.2
2018-06-29T06:55:02.680Z,20.4
2018-06-29T07:00:03.076Z,20.6
2018-06-29T07:05:02.490Z,20.8
2018-06-29T07:10:04.985Z,21.1
2018-06-29T07:15:02.841Z,21.1
2018-06-29T07:20:02.482Z,21.3
2018-06-29T07:25:05.457Z,21.5
2018-06-29T07:30:05.357Z,21.7
2018-06-29T07:35:08.355Z,21.8
2018-06-29T07:40:05.791Z,21.9
2018-06-29T07:45:10.215Z,22
2018-06-29T07:50:05.140Z,22.1
2018-06-29T07:55:03.029Z,22.1
2018-06-29T08:00:02.887Z,22.3
2018-06-29T08:05:03.319Z,22.4
2018-06-29T08:10:08.273Z,22.7
2018-06-29T08:15:05.110Z,22.8
2018-06-29T08:20:07.617Z,22.8
2018-06-29T08:25:15.774Z,23
2018-06-29T08:30:05.742Z,23.2
2018-06-29T08:35:02.629Z,23.1
2018-06-29T08:40:05.055Z,23.5
2018-06-29T08:45:05.698Z,23.6
2018-06-29T08:50:15.780Z,23.6
2018-06-29T08:55:07.791Z,23.7
2018-06-29T09:00:02.365Z,23.7
2018-06-29T09:05:05.327Z,23.9
2018-06-29T09:10:04.939Z,24.1
2018-06-29T09:15:05.345Z,24.2
2018-06-29T09:20:02.821Z,24.1
2018-06-29T09:25:10.841Z,24.4
2018-06-29T09:30:05.973Z,24.7
2018-06-29T09:35:02.718Z,24.7
2018-06-29T09:40:02.715Z,24.9
2018-06-29T09:45:10.789Z,25
2018-06-29T09:50:03.222Z,25
2018-06-29T09:55:05.160Z,25.2
2018-06-29T10:00:07.663Z,25.5
2018-06-29T10:05:10.681Z,25.6
2018-06-29T10:10:02.563Z,25.6
2018-06-29T10:15:05.757Z,25.5
2018-06-29T10:20:03.331Z,25.5
2018-06-29T10:25:07.787Z,25.6
2018-06-29T10:30:10.892Z,25.7
2018-06-29T10:35:12.861Z,25.8
2018-06-29T10:40:02.741Z,25.9
2018-06-29T10:45:03.315Z,25.9
2018-06-29T10:50:08.214Z,26.2
2018-06-29T10:55:02.601Z,26.2
2018-06-29T11:00:18.253Z,26.1
2018-06-29T11:05:02.519Z,26.1
2018-06-29T11:10:02.382Z,26.2
2018-06-29T11:15:12.962Z,26.4
2018-06-29T11:20:02.448Z,26.4
2018-06-29T11:25:05.448Z,26.8
2018-06-29T11:30:02.891Z,26.8
2018-06-29T11:35:02.555Z,26.9
2018-06-29T11:40:02.465Z,27
2018-06-29T11:45:10.943Z,27.4
2018-06-29T11:50:05.877Z,27.5
2018-06-29T11:55:02.777Z,27.5
2018-06-29T12:00:13.334Z,27.3
2018-06-29T12:05:02.742Z,27.3
2018-06-29T12:10:05.224Z,27.5
2018-06-29T12:15:03.261Z,27.5
2018-06-29T12:20:02.752Z,27.7
2018-06-29T12:25:03.149Z,27.8
2018-06-29T12:30:02.628Z,28
2018-06-29T12:35:05.657Z,28.3
2018-06-29T12:40:02.567Z,28.3
2018-06-29T12:45:05.598Z,28.5
2018-06-29T12:50:03.030Z,28.5
2018-06-29T12:55:02.515Z,28.8
2018-06-29T13:00:02.925Z,28.8
2018-06-29T13:05:02.414Z,28.9
2018-06-29T13:10:03.359Z,29.1
2018-06-29T13:15:03.066Z,29.3
2018-06-29T13:20:02.695Z,29.4
2018-06-29T13:25:15.917Z,29.9
2018-06-29T13:30:10.152Z,30.3
2018-06-29T13:35:08.223Z,30.7
2018-06-29T13:40:04.938Z,31.9
2018-06-29T13:45:02.954Z,31.9
2018-06-29T13:50:05.011Z,33.7
2018-06-29T13:55:08.086Z,33.8
2018-06-29T14:00:02.607Z,33.8
2018-06-29T14:05:10.721Z,35.2
2018-06-29T14:10:05.204Z,35.8
2018-06-29T14:15:03.257Z,35.7
2018-06-29T14:20:07.950Z,34.5
2018-06-29T14:25:32.803Z,33.4
2018-06-29T14:30:10.864Z,32.6
2018-06-29T14:35:05.358Z,32.8
2018-06-29T14:40:05.910Z,32.6
2018-06-29T14:45:05.458Z,33
2018-06-29T14:50:05.554Z,33.2
2018-06-29T14:55:02.525Z,33.2
2018-06-29T15:00:07.430Z,32.4
2018-06-29T15:05:05.555Z,32.4
2018-06-29T15:10:02.852Z,32.4
2018-06-29T15:15:04.995Z,32.4
2018-06-29T15:20:03.127Z,32.4
2018-06-29T15:25:05.256Z,32.4
2018-06-29T15:30:08.117Z,31.9
2018-06-29T15:35:05.127Z,31.3
2018-06-29T15:40:08.166Z,30.6
2018-06-29T15:45:05.180Z,30.3
2018-06-29T15:50:07.734Z,30.1
2018-06-29T15:55:05.759Z,30.1
2018-06-29T16:00:05.779Z,30.6
2018-06-29T16:05:07.794Z,30.5
2018-06-29T16:10:02.712Z,30.4
2018-06-29T16:15:07.452Z,29.3
2018-06-29T16:20:05.513Z,29.4
2018-06-29T16:25:02.433Z,29.4
2018-06-29T16:30:05.465Z,29.4
2018-06-29T16:35:02.450Z,29.4
2018-06-29T16:40:03.323Z,29.1
2018-06-29T16:45:02.830Z,28.8
2018-06-29T16:50:03.266Z,28.5
2018-06-29T16:55:02.944Z,28.5
2018-06-29T17:00:02.569Z,28.4
2018-06-29T17:05:08.119Z,27.9
2018-06-29T17:10:10.565Z,27.7
2018-06-29T17:15:02.619Z,27.7
2018-06-29T17:20:03.133Z,27.2
2018-06-29T17:25:02.732Z,26.8
2018-06-29T17:30:05.775Z,26.3
2018-06-29T17:35:08.107Z,26.3
2018-06-29T17:40:03.029Z,26.3
2018-06-29T17:45:02.464Z,26.1
2018-06-29T17:50:05.459Z,25.3
2018-06-29T17:55:08.548Z,25
2018-06-29T18:00:02.867Z,25
2018-06-29T18:05:03.280Z,24.8
2018-06-29T18:10:03.302Z,24.6
2018-06-29T18:15:02.702Z,24.4
2018-06-29T18:20:08.297Z,24
2018-06-29T18:25:02.685Z,24
2018-06-29T18:30:03.107Z,23.9
2018-06-29T18:35:02.533Z,23.8
2018-06-29T18:40:04.913Z,23.5
2018-06-29T18:45:02.795Z,23.5
2018-06-29T18:50:05.743Z,23.1
2018-06-29T18:55:02.665Z,23.1
2018-06-29T19:00:05.722Z,22.9
2018-06-29T19:05:05.059Z,22.8
2018-06-29T19:10:02.973Z,22.8
2018-06-29T19:15:04.994Z,22.7
2018-06-29T19:20:02.515Z,22.7
2018-06-29T19:25:03.015Z,22.6
2018-06-29T19:30:04.936Z,22.3
2018-06-29T19:35:02.818Z,22.3
2018-06-29T19:40:05.217Z,22
2018-06-29T19:45:10.937Z,21.8
2018-06-29T19:50:22.665Z,21.7
2018-06-29T19:55:13.176Z,21.6
2018-06-29T20:00:07.623Z,21.5
2018-06-29T20:05:05.579Z,21.4
2018-06-29T20:10:02.500Z,21.3
2018-06-29T20:15:05.510Z,21.1
2018-06-29T20:20:05.515Z,21
2018-06-29T20:25:17.716Z,20.9
2018-06-29T20:30:08.277Z,20.7
2018-06-29T20:35:02.541Z,20.8
2018-06-29T20:40:02.842Z,20.6
2018-06-29T20:45:05.786Z,20.4
2018-06-29T20:50:05.707Z,20.4
2018-06-29T20:55:10.165Z,20.2
2018-06-29T21:00:07.635Z,20.1
2018-06-29T21:05:08.092Z,20
2018-06-29T21:10:02.896Z,20
2018-06-29T21:15:02.419Z,19.9
2018-06-29T21:20:02.909Z,19.8
2018-06-29T21:25:08.336Z,19.6
2018-06-29T21:30:05.584Z,19.5
2018-06-29T21:35:07.445Z,19.4
2018-06-29T21:40:02.620Z,19.3
2018-06-29T21:45:03.012Z,19.2
2018-06-29T21:50:05.348Z,19.1
2018-06-29T21:55:04.895Z,19
2018-06-29T22:00:05.869Z,18.9
2018-06-29T22:05:02.709Z,18.9
2018-06-29T22:10:02.530Z,18.8
2018-06-29T22:15:02.938Z,18.7
2018-06-29T22:20:03.404Z,18.5
2018-06-29T22:25:02.741Z,18.4
2018-06-29T22:30:08.145Z,18
2018-06-29T22:35:02.498Z,18
2018-06-29T22:40:03.328Z,18
2018-06-29T22:45:02.741Z,17.8
2018-06-29T22:50:05.638Z,17.5
2018-06-29T22:55:02.488Z,17.6
2018-06-29T23:00:10.484Z,17.3
2018-06-29T23:05:03.278Z,17.3
2018-06-29T23:10:03.120Z,17.2
2018-06-29T23:15:02.438Z,17.2
2018-06-29T23:20:02.888Z,17.1
2018-06-29T23:25:08.348Z,16.9
2018-06-29T23:30:02.731Z,16.9
2018-06-29T23:35:05.614Z,16.8
2018-06-29T23:40:02.461Z,16.8
2018-06-29T23:45:02.848Z,16.7
2018-06-29T23:50:23.520Z,16.6
2018-06-29T23:55:02.998Z,16.6
